Campbell Airport

Jump to: basic info | weather | frequencies | runways | comments

Related pages: nearby airports | nearby navaids | notams | map

Basic information (top)

Codes: KC81 C81
Location: lon 42.324600, lat -88.074097, elev 788 ft / 240 m msl
Status: small_airport
Scheduled airline service: no
Links: Wikipedia Mobile

Weather (top)

Current conditions for Waukegan Regional Airport 11nm (20km) ENE (rec'd 2014/04/21 11:52Z):

KUGN 211152Z 20007KT 10SM CLR 14/07 A2994 RMK AO2 SLP134 60000 T01390072 10167 20128 56015

Airport forecast for Kenosha Regional Airport 18nm (32km) NNE (rec'd 2014/04/21 12:39Z):

TAF KENW 211138Z 2112/2212 18006KT P6SM SCT080 BKN150 
     FM211500 22008KT P6SM VCSH SCT040 OVC100 
      TEMPO 2116/2120 5SM -SHRA BKN040 
     FM212000 25011G20KT 5SM -SHRA OVC050 
      TEMPO 2121/2201 3SM -TSRA OVC030CB 
     FM220200 29013KT P6SM BKN050 
     FM220500 33013KT P6SM SCT040

Frequencies (top)

Verify before use: may be inaccurate or out of date.

A/D: 120.55 MHz (CHICAGO APP/DEP)
UNIC: 122.7 MHz (CTAF/UNICOM)

Runways (top)

06/24: 3,573 x 40 ft (1,089 x 12 m) — other (COP) — not lighted — threshold 24 displaced 301 ft (92 m)

09/27: 3,270 x 40 ft (997 x 12 m) — paved — lighted

Latest comments (top)

My aviation birthplace.: I did my Private Pilot training here. [read]

More... (top)

See also NOTAMs and nearby airports and navaids, or visit the Campbell Airport page at the main OurAirports website..